Poughkeepsie, NY (12601)

5:16 PM EDT en Octubre 23, 2014 (GMT -0400)
Arlington | Change Station
CLOSE
Current Station
Estación meteorológica personal
Location: Poughkeepsie, NY
Altura: 220 ft
Estaciones meteorológicas cercanas

Alt 220 ft 41.71 °N, 73.90 °W | Updated 35 seconds ago

Nublado
Nublado
50.0 ° F
Sensación térmica 50.0 ° F
N
2.2
Viento Variable Viento desde NNE
Gusts 5.4 mph

Hoy
Alta -- | Baja -- ° F
--% Posibilidad de precipitaciones
Ayer
Alta -- | Baja -- ° F
Precip. -- pul
7:16 AM 6:02 PM
Creciente menguante, 0% visible
Presión 29.75 pul
Visibilidad 10.0 Millas
Nubes Nublado 1700 ft
Punto de rocío 49 ° F
Humedad 95%
Precipitaciones 0.50 pul
Espesor de la nieve No disponible.
UV 0.0 de una escala de 12
Polen .10 de una escala de 12
Calidad del aire No disponible.
Flu Activity No disponible.
METAR KPOU 232053Z 36016G26KT 10SM OVC017 11/07 A2975 RMK AO2 PK WND 35029/2010 SLP072 60000 T01060067 53000

More Conditions Fewer Conditions

Presión 29.75 pul
Visibilidad 10.0 Millas
Nubes Nublado 1700 ft
Punto de rocío 49 ° F
Humedad 95%
Precipitaciones 0.50 pul
Espesor de la nieve No disponible.
UV 0.0 de una escala de 12
Polen .10 de una escala de 12
Calidad del aire No disponible.
Flu Activity No disponible.
METAR KPOU 232053Z 36016G26KT 10SM OVC017 11/07 A2975 RMK AO2 PK WND 35029/2010 SLP072 60000 T01060067 53000

More Conditions Fewer Conditions

10-Day Weather Forecast

Almanac

Astronomía

Oct. 23, 2014 Salida Puesta
Hora real 7:16 AM EDT 6:02 PM EDT
Crepúsculo civil 6:48 AM EDT 6:30 PM EDT
Crepúsculo náutico 6:16 AM EDT 7:03 PM EDT
Crepúsculo astronómico 5:43 AM EDT 7:35 PM EDT
Luna 6:53 AM EDT 6:02 PM EDT
Horas de luz 11h 42m
Horas de luz
10h 45m
Tomorrow will be 2m 37s shorter.
Creciente menguante, 0% of the Moon is Illuminated
Hoy
Creciente menguante
Oct 23
Nueva
Oct 30
Cuarto creciente
Nov 6
Luna llena
Nov 14
Cuarto menguante

Extremos de hoy

Máximos del estado Bajos del estado

Community

WunderPhotos

Upload Photos

1,764,372 ¡fotos cargadas!

WunderBlogs® & News

Nearby

Grosos de nieve

Estación Profundido Altura
No tenemos constancia de nieve nueva.

Actividad de terremotos

Ciudad Distance Mag. Tiempo y dato
No hay informes recientes de la actividad sísmica.
Magnitud mínima muestra es 2,5.

Temperaturas de aguas costeras

Lugar Temperatura
Sin partes meteorológicos de las estaciones

Estaciones meteorológicas cercanas